Time;durP1;ratioP1;P1;durP2;ratioP2;P2;SDS_P1;SDS_P2;PMS_P1;PMS_P2;Temp;Humidity;BMP_temperature;BMP_pressure;BME280_temperature;BME280_humidity;BME280_pressure;Samples;Min_cycle;Max_cycle;Signal;HPM_P1;HPM_P2
2023/01/03 00:01:10;;;;;;;158.63;29.23;;;0.60;99.90;;;;;;4210124;28;20280;-61
2023/01/03 00:03:17;;;;;;;183.07;28.83;;;0.60;99.90;;;;;;4212021;28;20268;-61
2023/01/03 00:05:18;;;;;;;285.93;38.20;;;0.60;99.90;;;;;;4211592;28;20749;-61
2023/01/03 00:07:32;;;;;;;134.47;27.07;;;0.60;99.90;;;;;;4211549;28;20265;-61
2023/01/03 00:09:33;;;;;;;170.17;27.30;;;0.50;99.90;;;;;;4210815;28;20260;-63
2023/01/03 00:13:55;;;;;;;275.97;34.33;;;0.50;99.90;;;;;;4211006;28;20349;-63
2023/01/03 00:15:56;;;;;;;218.57;34.83;;;0.40;99.90;;;;;;4212451;28;20848;-61
2023/01/03 00:17:57;;;;;;;200.00;31.70;;;0.40;99.90;;;;;;4211355;28;20334;-61
2023/01/03 00:19:58;;;;;;;163.00;29.30;;;0.40;99.90;;;;;;4212325;28;20298;-63
2023/01/03 00:22:00;;;;;;;325.50;42.13;;;0.40;99.90;;;;;;4210691;28;20667;-64
2023/01/03 00:24:01;;;;;;;290.10;39.70;;;0.40;99.90;;;;;;4211940;28;20257;-64
2023/01/03 00:26:11;;;;;;;186.37;30.77;;;0.40;99.90;;;;;;4211116;28;20279;-60
2023/01/03 00:28:12;;;;;;;220.00;35.00;;;0.50;99.90;;;;;;4211351;28;20269;-63
2023/01/03 00:30:13;;;;;;;232.83;31.83;;;0.40;99.90;;;;;;4210459;28;20314;-62
2023/01/03 00:32:14;;;;;;;129.27;26.60;;;0.40;99.90;;;;;;4211303;28;20847;-61
2023/01/03 00:34:15;;;;;;;194.03;28.43;;;0.40;99.90;;;;;;4211539;28;20296;-62
2023/01/03 00:36:16;;;;;;;170.77;27.20;;;0.30;99.90;;;;;;4211116;28;20330;-61
2023/01/03 00:38:17;;;;;;;168.23;26.37;;;0.40;99.90;;;;;;4211822;28;20272;-61
2023/01/03 00:40:19;;;;;;;273.70;37.87;;;0.40;99.90;;;;;;4211017;28;20256;-61
2023/01/03 00:42:20;;;;;;;133.43;26.93;;;0.30;99.90;;;;;;4211873;28;20269;-60
2023/01/03 00:44:21;;;;;;;155.43;25.93;;;0.30;99.90;;;;;;4210826;28;20643;-61
2023/01/03 00:46:22;;;;;;;120.67;27.13;;;0.30;99.90;;;;;;4211335;28;20334;-60
2023/01/03 00:48:24;;;;;;;143.63;26.63;;;0.40;99.90;;;;;;4210550;28;20256;-61
2023/01/03 00:50:25;;;;;;;153.87;26.93;;;0.40;99.90;;;;;;4211527;28;20334;-61
2023/01/03 00:52:27;;;;;;;130.93;25.40;;;0.40;99.90;;;;;;4210703;28;20671;-63
2023/01/03 00:54:28;;;;;;;176.00;27.60;;;0.40;99.90;;;;;;4211400;28;20284;-61
2023/01/03 00:56:35;;;;;;;181.77;28.40;;;0.40;99.90;;;;;;4210504;28;20534;-61
2023/01/03 00:58:37;;;;;;;146.43;24.53;;;0.40;99.90;;;;;;4211672;28;20265;-62
2023/01/03 01:00:40;;;;;;;149.23;26.87;;;0.40;99.90;;;;;;4210290;28;20280;-63
2023/01/03 01:02:41;;;;;;;117.67;27.27;;;0.30;99.90;;;;;;4209328;28;20277;-64
2023/01/03 01:04:42;;;;;;;140.87;30.27;;;0.30;99.90;;;;;;4211437;28;20781;-62
2023/01/03 01:07:03;;;;;;;187.97;29.80;;;0.40;99.90;;;;;;4210959;28;20253;-60
2023/01/03 01:09:07;;;;;;;78.82;22.90;;;0.30;99.90;;;;;;4210673;28;20269;-61
2023/01/03 01:11:08;;;;;;;214.47;30.33;;;0.30;99.90;;;;;;4210896;28;20035;-61
2023/01/03 01:13:09;;;;;;;121.57;25.50;;;0.30;99.90;;;;;;4211290;28;20325;-61
2023/01/03 01:15:11;;;;;;;198.40;29.53;;;0.30;99.90;;;;;;4210145;28;20370;-61
2023/01/03 01:17:12;;;;;;;134.43;27.93;;;0.30;99.90;;;;;;4211188;28;20309;-60
2023/01/03 01:19:14;;;;;;;116.70;28.43;;;0.30;99.90;;;;;;4208736;28;20318;-61
2023/01/03 01:21:27;;;;;;;183.37;37.67;;;0.30;99.90;;;;;;4211031;28;20680;-62
2023/01/03 01:23:28;;;;;;;186.30;39.03;;;0.30;99.90;;;;;;4202957;28;20268;-65
2023/01/03 01:25:33;;;;;;;225.00;42.10;;;0.30;99.90;;;;;;4210670;28;20655;-61
2023/01/03 01:27:34;;;;;;;229.63;41.77;;;0.30;99.90;;;;;;4210299;28;20261;-60
2023/01/03 01:29:38;;;;;;;180.83;43.30;;;0.30;99.90;;;;;;4211421;28;20265;-62
2023/01/03 01:31:40;;;;;;;219.70;45.40;;;0.30;99.90;;;;;;4210344;28;20334;-62
2023/01/03 01:33:42;;;;;;;226.47;50.17;;;0.30;99.90;;;;;;4210843;28;20314;-63
2023/01/03 01:35:43;;;;;;;333.57;57.03;;;0.30;99.90;;;;;;4210403;28;20345;-61
2023/01/03 01:37:44;;;;;;;244.27;52.17;;;0.30;99.90;;;;;;4211336;28;20268;-63
2023/01/03 01:39:45;;;;;;;166.13;41.77;;;0.30;99.90;;;;;;4210277;28;20268;-64
2023/01/03 01:44:53;;;;;;;228.00;47.87;;;0.30;99.90;;;;;;4213669;28;20321;-60
2023/01/03 01:46:54;;;;;;;207.13;44.77;;;0.30;99.90;;;;;;4212087;28;20276;-61
2023/01/03 01:49:04;;;;;;;226.77;50.70;;;0.30;99.90;;;;;;4212135;28;20733;-62
2023/01/03 01:51:08;;;;;;;189.07;46.67;;;0.30;99.90;;;;;;4214430;28;20260;-61
2023/01/03 01:53:20;;;;;;;194.87;47.20;;;0.30;99.90;;;;;;4213272;28;20049;-60
2023/01/03 01:55:25;;;;;;;202.30;47.10;;;0.30;99.90;;;;;;4212920;28;20730;-60
2023/01/03 01:57:28;;;;;;;174.80;44.93;;;0.20;99.90;;;;;;4212859;28;20326;-61
2023/01/03 01:59:29;;;;;;;232.53;48.80;;;0.20;99.90;;;;;;4214468;28;20709;-61
2023/01/03 02:01:32;;;;;;;255.73;52.87;;;0.30;99.90;;;;;;4212439;28;20768;-61
2023/01/03 02:03:34;;;;;;;259.20;51.60;;;0.20;99.90;;;;;;4213773;28;20280;-63
2023/01/03 02:05:38;;;;;;;241.20;49.63;;;0.20;99.90;;;;;;4212617;28;20342;-61
2023/01/03 02:07:39;;;;;;;110.80;39.27;;;0.20;99.90;;;;;;4213563;28;20737;-61
2023/01/03 02:09:40;;;;;;;152.27;41.67;;;0.20;99.90;;;;;;4213384;28;20724;-61
2023/01/03 02:11:46;;;;;;;173.03;41.07;;;0.20;99.90;;;;;;4213573;28;20291;-62
2023/01/03 02:14:05;;;;;;;252.07;47.10;;;0.20;99.90;;;;;;4213629;28;20265;-60
2023/01/03 02:16:19;;;;;;;221.10;45.73;;;0.20;99.90;;;;;;4213553;28;20626;-60
2023/01/03 02:18:26;;;;;;;209.57;47.47;;;0.20;99.90;;;;;;4213224;28;20664;-61
2023/01/03 02:20:39;;;;;;;158.53;42.47;;;0.20;99.90;;;;;;4213601;28;20252;-62
2023/01/03 02:23:12;;;;;;;235.93;47.30;;;0.20;99.90;;;;;;4212632;28;20313;-62
2023/01/03 02:25:55;;;;;;;293.93;49.30;;;0.10;99.90;;;;;;4213827;28;20273;-61
2023/01/03 02:28:34;;;;;;;248.93;47.97;;;0.10;99.90;;;;;;4206712;28;20764;-60
2023/01/03 02:30:46;;;;;;;217.13;45.20;;;0.20;99.90;;;;;;4213587;28;20751;-61
2023/01/03 02:33:17;;;;;;;230.83;45.53;;;0.10;99.90;;;;;;4212758;28;20690;-61
2023/01/03 02:35:35;;;;;;;236.40;48.28;;;0.10;99.90;;;;;;4213870;28;20741;-61
2023/01/03 02:37:44;;;;;;;188.83;44.77;;;0.10;99.90;;;;;;4212894;28;20080;-61
2023/01/03 02:40:04;;;;;;;159.23;43.57;;;0.10;99.90;;;;;;4212943;28;20310;-59
2023/01/03 02:44:57;;;;;;;210.97;43.23;;;0.10;99.90;;;;;;4212515;28;20089;-60
2023/01/03 02:47:18;;;;;;;316.07;53.77;;;0.10;99.90;;;;;;4208660;28;20264;-61
2023/01/03 02:49:40;;;;;;;230.63;41.77;;;0.10;99.90;;;;;;4212157;28;20261;-60
2023/01/03 02:51:44;;;;;;;206.13;41.23;;;0.10;99.90;;;;;;4212178;28;20306;-61
2023/01/03 02:53:47;;;;;;;337.20;52.00;;;0.00;99.90;;;;;;4212297;28;20322;-63
2023/01/03 02:55:52;;;;;;;179.13;39.37;;;0.00;99.90;;;;;;4213127;28;20304;-61
2023/01/03 02:58:19;;;;;;;146.20;36.53;;;0.00;99.90;;;;;;4212289;28;20598;-61
2023/01/03 03:00:23;;;;;;;182.67;35.20;;;0.00;99.90;;;;;;4207797;28;20292;-62
2023/01/03 03:02:31;;;;;;;305.57;47.40;;;0.00;99.90;;;;;;4211976;28;20417;-60
2023/01/03 03:04:35;;;;;;;118.30;32.67;;;0.00;99.90;;;;;;4213307;28;20385;-61
2023/01/03 03:06:53;;;;;;;132.97;35.00;;;0.00;99.90;;;;;;4209408;28;20268;-62
2023/01/03 03:08:54;;;;;;;129.07;35.40;;;0.10;99.90;;;;;;4211390;28;20765;-63
2023/01/03 03:13:59;;;;;;;238.00;45.70;;;0.30;99.90;;;;;;4213119;28;20330;-62
2023/01/03 03:16:09;;;;;;;187.77;41.83;;;0.30;99.90;;;;;;4209626;28;20097;-64
2023/01/03 03:18:20;;;;;;;164.20;42.97;;;0.20;99.90;;;;;;4213107;28;20265;-60
2023/01/03 03:25:36;;;;;;;159.87;40.40;;;0.10;99.90;;;;;;4212146;28;20326;-64
2023/01/03 03:30:06;;;;;;;147.80;39.70;;;0.00;99.90;;;;;;4212916;28;20357;-63
2023/01/03 03:32:07;;;;;;;177.40;43.13;;;0.00;99.90;;;;;;4211975;28;20725;-62
2023/01/03 03:34:14;;;;;;;131.33;40.87;;;0.00;99.90;;;;;;4212363;28;20264;-61
2023/01/03 03:36:33;;;;;;;163.13;40.77;;;0.00;99.90;;;;;;4212100;28;20272;-61
2023/01/03 03:38:40;;;;;;;210.23;45.73;;;0.00;99.90;;;;;;4212806;28;20745;-63
2023/01/03 03:46:13;;;;;;;234.80;45.10;;;0.00;99.90;;;;;;4210939;28;20314;-62
2023/01/03 03:48:18;;;;;;;125.37;38.43;;;0.00;99.90;;;;;;4212663;28;20265;-61
2023/01/03 03:50:31;;;;;;;155.43;39.03;;;0.00;99.90;;;;;;4211117;28;20257;-61
2023/01/03 03:52:35;;;;;;;100.73;34.00;;;0.00;99.90;;;;;;4212483;28;20318;-61
2023/01/03 03:54:39;;;;;;;249.03;44.97;;;0.00;99.90;;;;;;4210779;28;20288;-62
2023/01/03 03:56:45;;;;;;;192.13;42.43;;;0.10;99.90;;;;;;4211885;28;20338;-62
2023/01/03 03:58:56;;;;;;;173.80;41.90;;;0.00;99.90;;;;;;4211679;28;20273;-61
2023/01/03 04:00:59;;;;;;;304.93;49.23;;;0.00;99.90;;;;;;4212308;28;20752;-61
2023/01/03 04:03:02;;;;;;;97.60;35.70;;;0.10;99.90;;;;;;4211139;28;20319;-61
2023/01/03 04:05:08;;;;;;;193.37;44.40;;;0.10;99.90;;;;;;4212312;28;20329;-62
2023/01/03 04:07:09;;;;;;;184.27;44.60;;;0.10;99.90;;;;;;4211536;28;20802;-62
2023/01/03 04:09:11;;;;;;;236.97;46.03;;;0.10;99.90;;;;;;4212592;28;20261;-63
2023/01/03 04:11:12;;;;;;;148.20;39.30;;;0.00;99.90;;;;;;4210029;28;20329;-62
2023/01/03 04:13:13;;;;;;;286.53;49.43;;;0.00;99.90;;;;;;4211214;28;20597;-64
2023/01/03 04:15:15;;;;;;;150.73;40.93;;;0.00;99.90;;;;;;4211153;28;20305;-61
2023/01/03 04:17:16;;;;;;;275.73;49.67;;;0.00;99.90;;;;;;4211734;28;20752;-61
2023/01/03 04:19:17;;;;;;;189.73;40.87;;;0.00;99.90;;;;;;4211379;28;20245;-61
2023/01/03 04:21:19;;;;;;;213.53;46.93;;;0.00;99.90;;;;;;4210749;28;20319;-62
2023/01/03 04:23:20;;;;;;;122.83;36.30;;;0.00;99.90;;;;;;4211464;28;20833;-62
2023/01/03 04:25:21;;;;;;;329.70;53.73;;;0.10;99.90;;;;;;4210718;28;20322;-62
2023/01/03 04:27:23;;;;;;;120.50;35.67;;;0.10;99.90;;;;;;4212114;28;20261;-62
2023/01/03 04:29:24;;;;;;;259.97;44.30;;;0.10;99.90;;;;;;4210804;28;20582;-63
2023/01/03 04:31:25;;;;;;;266.57;45.77;;;0.20;99.90;;;;;;4211642;28;20613;-61
2023/01/03 04:33:26;;;;;;;196.77;41.87;;;0.10;99.90;;;;;;4210462;28;20260;-61
2023/01/03 04:35:27;;;;;;;168.77;36.80;;;0.10;99.90;;;;;;4212084;28;20369;-62
2023/01/03 04:37:28;;;;;;;154.50;39.67;;;0.10;99.90;;;;;;4210992;28;20365;-63
2023/01/03 04:39:30;;;;;;;197.27;44.33;;;0.10;99.90;;;;;;4211561;28;20679;-60
2023/01/03 04:41:31;;;;;;;190.03;41.47;;;0.10;99.90;;;;;;4210700;28;20265;-62
2023/01/03 04:45:52;;;;;;;175.37;40.43;;;0.10;99.90;;;;;;4210186;28;20690;-64
2023/01/03 04:47:53;;;;;;;212.27;41.80;;;0.00;99.90;;;;;;4211679;28;20307;-60
2023/01/03 04:49:54;;;;;;;311.77;51.43;;;0.00;99.90;;;;;;4210726;28;20310;-61
2023/01/03 04:51:55;;;;;;;120.03;35.43;;;0.00;99.90;;;;;;4211046;28;20835;-61
2023/01/03 04:53:56;;;;;;;159.07;39.37;;;0.00;99.90;;;;;;4210687;28;20326;-63
2023/01/03 04:55:58;;;;;;;127.20;36.20;;;0.10;99.90;;;;;;4210509;28;20296;-65
2023/01/03 04:58:00;;;;;;;117.17;34.50;;;0.10;99.90;;;;;;4211026;28;20264;-61
2023/01/03 05:00:01;;;;;;;132.83;34.93;;;0.10;99.90;;;;;;4208961;28;20268;-62
2023/01/03 05:02:02;;;;;;;194.07;41.17;;;0.10;99.90;;;;;;4210734;28;20302;-60
2023/01/03 05:04:03;;;;;;;191.37;37.43;;;0.10;99.90;;;;;;4210342;28;20655;-61
2023/01/03 05:06:07;;;;;;;139.57;38.13;;;0.00;99.90;;;;;;4211197;28;20329;-64
2023/01/03 05:08:11;;;;;;;212.03;36.47;;;0.00;99.90;;;;;;4210639;28;20377;-62
2023/01/03 05:10:12;;;;;;;171.07;37.27;;;0.00;99.90;;;;;;4211482;28;20349;-63
2023/01/03 05:12:13;;;;;;;227.57;42.33;;;-0.10;99.90;;;;;;4210124;28;20306;-61
2023/01/03 05:14:14;;;;;;;142.50;34.80;;;-0.10;99.90;;;;;;4210549;28;20409;-61
2023/01/03 05:16:15;;;;;;;185.23;38.07;;;-0.10;99.90;;;;;;4209340;28;20296;-61
2023/01/03 05:18:16;;;;;;;164.87;38.10;;;-0.10;99.90;;;;;;4211510;28;20265;-62
2023/01/03 05:27:16;;;;;;;98.03;29.47;;;-0.20;99.90;;;;;;4210862;28;20345;-60
2023/01/03 05:29:20;;;;;;;159.20;37.80;;;-0.20;99.90;;;;;;4210187;28;20302;-62
2023/01/03 05:31:21;;;;;;;163.37;39.47;;;-0.20;99.90;;;;;;4211408;28;20277;-61
2023/01/03 05:33:24;;;;;;;81.43;30.80;;;-0.20;99.90;;;;;;4210033;28;20264;-60
2023/01/03 05:35:25;;;;;;;133.67;36.00;;;-0.20;99.90;;;;;;4211010;28;20764;-64
2023/01/03 05:37:26;;;;;;;160.73;37.90;;;-0.20;99.90;;;;;;4210477;28;20314;-62
2023/01/03 05:39:27;;;;;;;224.30;41.80;;;-0.20;99.90;;;;;;4210755;28;20277;-64
2023/01/03 05:43:48;;;;;;;222.13;40.17;;;-0.20;99.90;;;;;;4210364;28;20686;-63
2023/01/03 05:45:50;;;;;;;112.90;37.47;;;-0.30;99.90;;;;;;4210085;28;20285;-61
2023/01/03 05:47:52;;;;;;;111.27;34.23;;;-0.20;99.90;;;;;;4210350;28;20273;-63
2023/01/03 05:49:53;;;;;;;115.17;33.93;;;-0.20;99.90;;;;;;4210463;28;20253;-61
2023/01/03 05:51:54;;;;;;;126.63;33.57;;;-0.20;99.90;;;;;;4209825;28;20260;-62
2023/01/03 05:53:55;;;;;;;154.57;40.70;;;-0.20;99.90;;;;;;4210874;28;20705;-60
2023/01/03 05:55:57;;;;;;;185.00;45.70;;;-0.10;99.90;;;;;;4208633;28;20349;-63
2023/01/03 05:57:58;;;;;;;191.03;43.17;;;-0.10;99.90;;;;;;4210706;28;20813;-61
2023/01/03 05:59:59;;;;;;;143.63;35.70;;;-0.10;99.90;;;;;;4209691;28;20276;-63
2023/01/03 06:02:00;;;;;;;213.53;43.50;;;-0.10;99.90;;;;;;4210476;28;20849;-62
2023/01/03 06:04:01;;;;;;;121.53;33.57;;;-0.10;99.90;;;;;;4209943;28;20319;-63
2023/01/03 06:06:08;;;;;;;122.33;32.97;;;-0.10;99.90;;;;;;4210507;28;20330;-61
2023/01/03 06:08:09;;;;;;;149.77;37.77;;;-0.20;99.90;;;;;;4209392;28;20751;-60
2023/01/03 06:10:10;;;;;;;153.70;38.47;;;-0.10;99.90;;;;;;4211018;28;20322;-63
2023/01/03 06:12:12;;;;;;;94.70;34.00;;;-0.10;99.90;;;;;;4209852;28;20264;-62
2023/01/03 06:14:13;;;;;;;245.57;47.47;;;-0.10;99.90;;;;;;4210473;28;20402;-60
2023/01/03 06:18:36;;;;;;;108.90;34.17;;;0.00;99.90;;;;;;4210794;28;20829;-61
2023/01/03 06:20:37;;;;;;;133.97;34.57;;;-0.10;99.90;;;;;;4209861;28;20257;-62
2023/01/03 06:22:38;;;;;;;118.83;32.90;;;0.00;99.90;;;;;;4210189;28;20320;-65
2023/01/03 06:24:39;;;;;;;142.60;38.23;;;-0.10;99.90;;;;;;4210094;28;20724;-63
2023/01/03 06:26:40;;;;;;;110.50;36.13;;;-0.10;99.90;;;;;;4209898;28;20690;-64
2023/01/03 06:28:42;;;;;;;129.97;36.77;;;0.00;99.90;;;;;;4213297;28;20426;-62
2023/01/03 06:30:43;;;;;;;121.60;37.23;;;0.00;99.90;;;;;;4212533;28;20357;-62
2023/01/03 06:32:44;;;;;;;133.97;38.60;;;0.00;99.90;;;;;;4213608;28;20794;-62
2023/01/03 06:34:45;;;;;;;141.77;36.13;;;0.00;99.90;;;;;;4212923;28;20678;-61
2023/01/03 06:36:47;;;;;;;149.03;36.53;;;0.00;99.90;;;;;;4213609;28;20377;-63
2023/01/03 06:38:48;;;;;;;156.80;36.37;;;-0.10;99.90;;;;;;4212863;28;20314;-62
2023/01/03 06:40:49;;;;;;;101.17;34.17;;;-0.10;99.90;;;;;;4213262;28;20344;-63
2023/01/03 06:42:50;;;;;;;139.03;36.90;;;-0.10;99.90;;;;;;4212567;28;20273;-64
2023/01/03 06:54:23;;;;;;;74.23;32.17;;;-0.10;99.90;;;;;;4213459;28;20295;-65
2023/01/03 06:56:25;;;;;;;116.90;34.03;;;-0.10;99.90;;;;;;4211972;28;20637;-61
2023/01/03 06:58:26;;;;;;;170.93;49.37;;;-0.10;99.90;;;;;;4213516;28;20683;-65
2023/01/03 07:00:28;;;;;;;106.87;34.40;;;-0.10;99.90;;;;;;4212053;28;20741;-63
2023/01/03 07:02:29;;;;;;;144.27;40.90;;;0.00;99.90;;;;;;4213314;28;20345;-63
2023/01/03 07:04:31;;;;;;;101.80;37.27;;;0.00;99.90;;;;;;4212044;28;20272;-63
2023/01/03 07:06:32;;;;;;;137.53;37.27;;;0.10;99.90;;;;;;4213082;28;20269;-63
2023/01/03 07:08:33;;;;;;;129.30;36.23;;;0.10;99.90;;;;;;4212344;28;20261;-64
2023/01/03 07:10:34;;;;;;;87.80;31.87;;;0.10;99.90;;;;;;4212966;28;20737;-63
2023/01/03 07:14:55;;;;;;;174.13;40.80;;;0.10;99.90;;;;;;4212952;28;20338;-62
2023/01/03 07:16:56;;;;;;;212.60;43.87;;;0.20;99.90;;;;;;4212109;28;20301;-63
2023/01/03 07:18:58;;;;;;;88.33;33.83;;;0.00;99.90;;;;;;4212511;28;20272;-64
2023/01/03 07:20:59;;;;;;;95.33;34.27;;;0.00;99.90;;;;;;4211702;28;20655;-62
2023/01/03 07:23:00;;;;;;;153.97;35.50;;;0.10;99.90;;;;;;4212333;28;20286;-63
2023/01/03 07:25:01;;;;;;;146.43;35.40;;;0.10;99.90;;;;;;4212558;28;20322;-62
2023/01/03 07:27:02;;;;;;;113.93;39.57;;;0.10;99.90;;;;;;4211934;28;20322;-63
2023/01/03 07:29:06;;;;;;;95.97;32.50;;;0.00;99.90;;;;;;4212487;28;20389;-66
2023/01/03 07:31:07;;;;;;;81.17;29.77;;;0.10;99.90;;;;;;4211373;28;20306;-61
2023/01/03 07:33:11;;;;;;;90.70;28.83;;;0.10;99.90;;;;;;4212700;28;20318;-66
2023/01/03 07:35:12;;;;;;;85.47;32.43;;;0.20;99.90;;;;;;4211308;28;20256;-64
2023/01/03 07:37:13;;;;;;;74.90;31.83;;;0.20;99.90;;;;;;4212695;28;20280;-63
2023/01/03 07:39:14;;;;;;;81.53;34.03;;;0.20;99.90;;;;;;4211029;28;20317;-64
2023/01/03 07:41:16;;;;;;;95.60;32.67;;;0.20;99.90;;;;;;4212403;28;20265;-63
2023/01/03 07:43:36;;;;;;;171.30;44.53;;;0.20;99.90;;;;;;4210497;28;20260;-62
2023/01/03 07:45:43;;;;;;;121.40;36.00;;;0.20;99.90;;;;;;4212509;28;20264;-63
2023/01/03 07:47:45;;;;;;;76.40;30.97;;;0.20;99.90;;;;;;4211495;28;20265;-63
2023/01/03 07:49:47;;;;;;;91.23;34.73;;;0.20;99.90;;;;;;4212646;28;20366;-63
2023/01/03 07:51:48;;;;;;;77.87;30.70;;;0.30;99.90;;;;;;4211022;28;20338;-64
2023/01/03 07:53:50;;;;;;;88.47;32.27;;;0.30;99.90;;;;;;4211251;28;20395;-62
2023/01/03 07:55:51;;;;;;;70.87;30.20;;;0.40;99.90;;;;;;4211175;28;20296;-62
2023/01/03 07:57:54;;;;;;;62.77;30.53;;;0.40;99.90;;;;;;4211571;28;20333;-64
2023/01/03 07:59:55;;;;;;;102.40;35.57;;;0.50;99.90;;;;;;4211396;28;20716;-62
2023/01/03 08:01:56;;;;;;;122.90;35.87;;;0.60;99.90;;;;;;4211261;28;20272;-63
2023/01/03 08:03:57;;;;;;;79.97;33.40;;;0.50;99.90;;;;;;4211584;28;20280;-63
2023/01/03 08:06:00;;;;;;;100.13;33.53;;;0.60;99.90;;;;;;4210955;28;20269;-62
2023/01/03 08:08:03;;;;;;;97.90;33.80;;;0.70;99.90;;;;;;4212425;28;20792;-62
2023/01/03 08:14:44;;;;;;;120.60;35.67;;;0.70;99.90;;;;;;4211046;28;20322;-66
2023/01/03 08:16:45;;;;;;;91.27;34.23;;;0.60;99.90;;;;;;4211558;28;20401;-62
2023/01/03 08:18:46;;;;;;;123.37;44.40;;;0.50;99.90;;;;;;4209633;28;21723;-61
2023/01/03 08:20:47;;;;;;;116.50;39.87;;;0.50;99.90;;;;;;4211748;28;20268;-62
2023/01/03 08:22:48;;;;;;;87.80;39.30;;;0.40;99.90;;;;;;4210769;28;20298;-61
2023/01/03 08:24:49;;;;;;;80.87;32.97;;;0.50;99.90;;;;;;4211260;28;20273;-62
2023/01/03 08:26:50;;;;;;;112.53;36.37;;;0.50;99.90;;;;;;4209264;28;20750;-61
2023/01/03 08:28:51;;;;;;;111.27;37.30;;;0.60;99.90;;;;;;4211572;28;20272;-61
2023/01/03 08:30:52;;;;;;;132.00;39.53;;;0.50;99.90;;;;;;4210304;28;20623;-60
2023/01/03 08:32:55;;;;;;;109.83;35.90;;;0.60;99.90;;;;;;4211377;28;20330;-60
2023/01/03 08:34:57;;;;;;;119.23;39.93;;;0.60;99.90;;;;;;4210093;28;20268;-61
2023/01/03 08:37:03;;;;;;;109.27;35.57;;;0.60;99.90;;;;;;4210808;28;20333;-61
2023/01/03 08:39:08;;;;;;;117.07;37.73;;;0.50;99.90;;;;;;4210810;28;20330;-61
2023/01/03 08:41:13;;;;;;;101.90;33.83;;;0.50;99.90;;;;;;4210679;28;20291;-61
2023/01/03 08:43:15;;;;;;;140.17;35.43;;;0.50;99.90;;;;;;4210241;28;20284;-61
2023/01/03 08:45:17;;;;;;;99.37;35.43;;;0.60;99.90;;;;;;4210587;28;20273;-62
2023/01/03 08:47:19;;;;;;;98.67;35.67;;;0.70;99.90;;;;;;4210790;28;20261;-61
2023/01/03 08:49:20;;;;;;;126.77;36.17;;;0.80;99.90;;;;;;4209909;28;20322;-62
2023/01/03 08:51:23;;;;;;;118.70;35.47;;;0.80;99.90;;;;;;4210707;28;20277;-64
2023/01/03 08:53:24;;;;;;;118.00;38.70;;;0.80;99.90;;;;;;4208881;28;20326;-64
2023/01/03 08:55:26;;;;;;;141.97;39.17;;;0.80;99.90;;;;;;4211111;28;20675;-63
2023/01/03 08:57:27;;;;;;;99.43;37.90;;;0.80;99.90;;;;;;4209960;28;20683;-61
2023/01/03 08:59:28;;;;;;;148.57;40.37;;;0.90;99.90;;;;;;4211033;28;20277;-62
2023/01/03 09:01:29;;;;;;;105.23;40.70;;;0.90;99.90;;;;;;4209710;28;20758;-62
2023/01/03 09:03:30;;;;;;;150.63;43.17;;;1.00;99.90;;;;;;4210746;28;20683;-62
2023/01/03 09:05:32;;;;;;;245.20;44.73;;;1.10;99.90;;;;;;4209701;28;20760;-62
2023/01/03 09:07:33;;;;;;;200.77;43.23;;;1.00;99.90;;;;;;4211361;28;20280;-61
2023/01/03 09:09:34;;;;;;;144.60;41.53;;;1.00;99.90;;;;;;4210386;28;20397;-61
2023/01/03 09:11:35;;;;;;;138.33;41.47;;;1.00;99.90;;;;;;4210875;28;20269;-65
2023/01/03 09:13:37;;;;;;;94.57;38.80;;;1.10;99.90;;;;;;4209657;28;20260;-61
2023/01/03 09:15:38;;;;;;;101.63;40.27;;;1.10;99.90;;;;;;4209990;28;20666;-62
2023/01/03 09:17:43;;;;;;;107.63;39.60;;;1.20;99.90;;;;;;4210310;28;20330;-61
2023/01/03 09:19:44;;;;;;;115.63;39.90;;;1.30;99.90;;;;;;4210300;28;20265;-62
2023/01/03 09:21:45;;;;;;;109.83;39.23;;;1.30;99.90;;;;;;4210286;28;20302;-61
2023/01/03 09:23:46;;;;;;;112.17;44.17;;;1.40;99.90;;;;;;4209975;28;20338;-62
2023/01/03 09:25:47;;;;;;;108.60;42.77;;;1.40;99.90;;;;;;4211186;28;20269;-62
2023/01/03 09:27:48;;;;;;;162.23;48.50;;;1.60;99.90;;;;;;4209894;28;20318;-64
2023/01/03 09:29:49;;;;;;;124.60;45.90;;;1.60;99.90;;;;;;4209650;28;20329;-61
2023/01/03 09:31:50;;;;;;;118.60;47.07;;;1.50;99.90;;;;;;4209600;28;20318;-61
2023/01/03 09:33:51;;;;;;;115.03;39.80;;;1.50;99.90;;;;;;4210905;28;20260;-62
2023/01/03 09:35:53;;;;;;;127.90;44.70;;;1.60;99.90;;;;;;4209042;28;20318;-61
2023/01/03 09:37:54;;;;;;;144.30;46.57;;;1.70;99.90;;;;;;4210924;28;20330;-61
2023/01/03 09:39:55;;;;;;;162.80;46.37;;;1.70;99.90;;;;;;4209301;28;20273;-65
2023/01/03 09:44:27;;;;;;;123.67;38.83;;;1.80;99.90;;;;;;4200365;28;20257;-61
2023/01/03 09:46:31;;;;;;;178.97;37.17;;;1.80;99.90;;;;;;4210711;28;21305;-62
2023/01/03 09:48:36;;;;;;;88.80;36.30;;;1.80;99.90;;;;;;4209478;28;20821;-62
2023/01/03 09:50:37;;;;;;;108.57;33.97;;;1.90;99.90;;;;;;4210099;28;20298;-62
2023/01/03 10:05:20;;;;;;;142.47;39.63;;;2.30;99.90;;;;;;4213425;28;20342;-60
2023/01/03 10:07:47;;;;;;;133.93;37.03;;;2.10;99.90;;;;;;4213503;28;20318;-61
2023/01/03 10:10:13;;;;;;;106.30;35.87;;;2.00;99.90;;;;;;4213102;28;20253;-62
2023/01/03 10:12:21;;;;;;;94.20;33.80;;;1.90;99.90;;;;;;4213089;28;20361;-61
2023/01/03 10:14:49;;;;;;;109.17;34.43;;;1.90;99.90;;;;;;4212486;28;20316;-62
2023/01/03 10:17:02;;;;;;;123.40;34.77;;;1.90;99.90;;;;;;4213613;28;20337;-63
2023/01/03 10:19:30;;;;;;;99.70;35.97;;;1.90;99.90;;;;;;4212581;28;20261;-64
2023/01/03 10:21:49;;;;;;;75.57;34.50;;;1.90;99.90;;;;;;4213594;28;20666;-61
2023/01/03 10:23:53;;;;;;;69.23;32.03;;;1.90;99.90;;;;;;4212393;28;20248;-63
2023/01/03 10:25:55;;;;;;;67.33;31.70;;;2.00;99.90;;;;;;4213581;28;20594;-65
2023/01/03 10:28:17;;;;;;;66.60;32.80;;;2.00;99.90;;;;;;4212643;28;20380;-62
2023/01/03 10:30:39;;;;;;;76.37;34.57;;;2.10;99.90;;;;;;4203721;28;20703;-61
2023/01/03 10:33:02;;;;;;;77.30;34.60;;;2.20;99.90;;;;;;4183837;28;20273;-63
2023/01/03 10:35:19;;;;;;;69.50;33.80;;;2.30;99.90;;;;;;4213119;28;20798;-62
2023/01/03 10:37:27;;;;;;;67.10;32.00;;;2.40;99.90;;;;;;4211548;28;20289;-61
2023/01/03 10:39:30;;;;;;;61.23;31.40;;;2.50;99.90;;;;;;4213334;28;20334;-62
2023/01/03 10:41:43;;;;;;;61.93;31.43;;;2.70;99.90;;;;;;4211660;28;20265;-61
2023/01/03 10:43:54;;;;;;;64.30;32.10;;;2.80;99.90;;;;;;4212816;28;20302;-62
2023/01/03 10:46:03;;;;;;;68.70;32.77;;;2.90;99.90;;;;;;4210764;28;20280;-62
2023/01/03 10:48:05;;;;;;;70.43;33.50;;;3.00;99.90;;;;;;4213042;28;20265;-64
2023/01/03 10:50:10;;;;;;;68.20;32.47;;;3.20;99.90;;;;;;4212088;28;20720;-62
2023/01/03 10:52:21;;;;;;;59.73;30.90;;;3.20;99.90;;;;;;4213009;28;20798;-64
2023/01/03 10:54:22;;;;;;;61.40;32.10;;;3.30;99.90;;;;;;4211475;28;20791;-60
2023/01/03 10:56:24;;;;;;;60.10;31.40;;;3.30;99.90;;;;;;4212395;28;20417;-62
2023/01/03 10:58:27;;;;;;;57.57;32.70;;;3.30;99.90;;;;;;4209951;28;20273;-62
2023/01/03 11:00:37;;;;;;;61.13;33.47;;;3.20;99.90;;;;;;4211462;28;20272;-65
2023/01/03 11:02:46;;;;;;;56.55;32.28;;;3.10;99.90;;;;;;4220316;28;21385;-64
2023/01/03 11:04:47;;;;;;;58.30;30.57;;;3.10;99.90;;;;;;4229763;28;20036;-65
2023/01/03 11:07:08;;;;;;;55.80;30.53;;;3.00;99.90;;;;;;4228662;27;20668;-70
2023/01/03 11:09:10;;;;;;;;;;;3.10;99.90;;;;;;4230555;28;20265;-66
2023/01/03 11:11:43;;;;;;;59.77;31.63;;;3.10;99.90;;;;;;4228355;27;20317;-68
2023/01/03 11:13:44;;;;;;;52.33;28.07;;;3.10;99.90;;;;;;4205616;28;20326;-66
2023/01/03 11:15:45;;;;;;;50.93;28.57;;;3.10;99.90;;;;;;4228272;28;20289;-68
2023/01/03 11:17:55;;;;;;;51.47;27.60;;;3.10;99.90;;;;;;4229257;27;20292;-65
2023/01/03 11:19:56;;;;;;;49.08;27.38;;;3.10;99.90;;;;;;4228571;28;20305;-66
2023/01/03 11:22:26;;;;;;;62.10;29.33;;;3.10;99.90;;;;;;4229519;27;20434;-63
2023/01/03 11:24:54;;;;;;;49.33;27.10;;;3.10;99.90;;;;;;4228122;28;20264;-62
2023/01/03 11:27:50;;;;;;;59.57;28.43;;;3.10;99.90;;;;;;4229505;27;20280;-66
2023/01/03 11:30:14;;;;;;;56.10;28.83;;;3.10;99.90;;;;;;4193086;28;20273;-66
2023/01/03 11:32:23;;;;;;;48.63;26.97;;;3.20;99.90;;;;;;4211644;27;20281;-64
2023/01/03 11:34:53;;;;;;;54.67;29.33;;;3.20;99.90;;;;;;4212572;28;20333;-68
2023/01/03 11:37:12;;;;;;;50.10;27.70;;;3.30;99.90;;;;;;4209543;28;20289;-66
2023/01/03 11:39:16;;;;;;;50.47;26.00;;;3.50;99.90;;;;;;4212607;28;20338;-63
2023/01/03 11:41:48;;;;;;;54.43;26.33;;;3.50;99.90;;;;;;4211137;28;20342;-64
2023/01/03 11:44:09;;;;;;;54.50;26.73;;;3.50;99.90;;;;;;4210913;28;20365;-61
2023/01/03 11:46:17;;;;;;;54.17;28.73;;;3.40;99.90;;;;;;4210174;28;20289;-63